createdAt,value
2023-02-23T00:01:44.565Z,100.00
2023-02-23T00:05:15.192Z,100.00
2023-02-23T00:08:47.774Z,100.00
2023-02-23T00:12:47.468Z,100.00
2023-02-23T00:16:17.930Z,100.00
2023-02-23T00:20:14.361Z,100.00
2023-02-23T00:24:03.422Z,100.00
2023-02-23T00:28:14.165Z,100.00
2023-02-23T00:30:50.355Z,100.00
2023-02-23T00:33:18.759Z,100.00
2023-02-23T00:36:09.468Z,100.00
2023-02-23T00:38:48.206Z,100.00
2023-02-23T00:41:20.861Z,100.00
2023-02-23T00:43:56.400Z,100.00
2023-02-23T00:46:30.700Z,100.00
2023-02-23T00:49:01.503Z,100.00
2023-02-23T00:51:34.325Z,100.00
2023-02-23T00:54:10.087Z,100.00
2023-02-23T00:56:42.860Z,100.00
2023-02-23T00:59:15.033Z,100.00
2023-02-23T01:01:46.989Z,100.00
2023-02-23T01:04:17.511Z,100.00
2023-02-23T01:06:50.963Z,100.00
2023-02-23T01:09:28.675Z,100.00
2023-02-23T01:12:50.177Z,100.00
2023-02-23T01:15:23.077Z,100.00
2023-02-23T01:17:55.775Z,100.00
2023-02-23T01:20:27.465Z,100.00
2023-02-23T01:22:59.964Z,100.00
2023-02-23T01:25:33.384Z,100.00
2023-02-23T01:28:23.243Z,100.00
2023-02-23T01:31:52.483Z,100.00
2023-02-23T01:34:24.448Z,100.00
2023-02-23T01:36:53.028Z,100.00
2023-02-23T01:39:44.821Z,100.00
2023-02-23T01:42:16.278Z,100.00
2023-02-23T01:45:40.789Z,100.00
2023-02-23T01:48:25.888Z,100.00
2023-02-23T01:51:19.947Z,100.00
2023-02-23T01:54:32.590Z,100.00
2023-02-23T01:58:09.195Z,100.00
2023-02-23T02:00:49.773Z,100.00
2023-02-23T02:03:54.259Z,100.00
2023-02-23T02:06:29.399Z,100.00
2023-02-23T02:09:27.165Z,100.00
2023-02-23T02:12:15.549Z,100.00
2023-02-23T02:15:09.686Z,100.00
2023-02-23T02:18:56.202Z,100.00
2023-02-23T02:22:28.078Z,100.00
2023-02-23T02:26:18.926Z,100.00
2023-02-23T02:30:45.168Z,100.00
2023-02-23T02:34:40.511Z,100.00
2023-02-23T02:38:31.674Z,100.00
2023-02-23T02:42:02.648Z,100.00
2023-02-23T02:45:33.516Z,100.00
2023-02-23T02:49:22.364Z,100.00
2023-02-23T02:52:40.148Z,100.00
2023-02-23T02:55:53.174Z,100.00
2023-02-23T02:58:44.361Z,79.80
2023-02-23T03:02:12.085Z,79.80
2023-02-23T03:05:39.357Z,100.00
2023-02-23T03:09:27.482Z,79.80
2023-02-23T03:13:21.171Z,-1.00
2023-02-23T03:16:42.240Z,-1.00
2023-02-23T03:20:09.393Z,-1.00
2023-02-23T03:23:38.944Z,-1.00
2023-02-23T03:27:25.131Z,-1.00
2023-02-23T03:30:37.703Z,-1.00
2023-02-23T03:34:18.945Z,-1.00
2023-02-23T03:37:28.066Z,-1.00
2023-02-23T03:40:47.347Z,-1.00
2023-02-23T03:44:00.964Z,-1.00
2023-02-23T03:47:23.082Z,-1.00
2023-02-23T03:50:13.986Z,-1.00
2023-02-23T03:53:09.895Z,-1.00
2023-02-23T03:56:08.083Z,-1.00
2023-02-23T03:59:03.742Z,-1.00
2023-02-23T04:02:14.492Z,-1.00
2023-02-23T04:05:06.870Z,-1.00
2023-02-23T04:07:58.440Z,-1.00
2023-02-23T04:10:50.457Z,-1.00
2023-02-23T04:13:40.420Z,-1.00
2023-02-23T04:16:12.456Z,-1.00
2023-02-23T04:18:51.589Z,-1.00
2023-02-23T04:21:20.679Z,-1.00
2023-02-23T04:23:52.497Z,-1.00
2023-02-23T04:26:22.885Z,-1.00
2023-02-23T04:28:53.364Z,-1.00
2023-02-23T04:31:26.454Z,-1.00
2023-02-23T04:33:57.258Z,-1.00
2023-02-23T04:36:30.323Z,-1.00
2023-02-23T04:39:01.467Z,-1.00
2023-02-23T04:41:31.636Z,-1.00
2023-02-23T04:44:04.401Z,-1.00
2023-02-23T04:46:34.340Z,-1.00
2023-02-23T04:49:11.034Z,-1.00
2023-02-23T04:51:41.283Z,-1.00
2023-02-23T04:54:12.150Z,-1.00
2023-02-23T04:56:41.898Z,-1.00
2023-02-23T04:59:20.345Z,-1.00
2023-02-23T05:01:51.557Z,-1.00
2023-02-23T05:04:24.120Z,-1.00
2023-02-23T05:06:56.036Z,-1.00
2023-02-23T05:09:27.064Z,-1.00
2023-02-23T05:11:58.206Z,-1.00
2023-02-23T05:14:27.282Z,-1.00
2023-02-23T05:17:19.915Z,-1.00
2023-02-23T05:19:50.893Z,-1.00
2023-02-23T05:22:22.310Z,-1.00
2023-02-23T05:24:56.407Z,-1.00
2023-02-23T05:27:28.448Z,-1.00
2023-02-23T05:29:59.666Z,-1.00
2023-02-23T05:32:30.055Z,-1.00
2023-02-23T05:35:24.200Z,-1.00
2023-02-23T05:38:39.028Z,-1.00
2023-02-23T05:41:12.293Z,-1.00
2023-02-23T05:43:42.848Z,-1.00
2023-02-23T05:46:17.518Z,-1.00
2023-02-23T05:50:04.986Z,-1.00
2023-02-23T05:52:41.217Z,-1.00
2023-02-23T05:55:12.100Z,-1.00
2023-02-23T05:57:44.034Z,-1.00
2023-02-23T06:00:18.767Z,-1.00
2023-02-23T06:03:47.357Z,-1.00
2023-02-23T06:06:31.612Z,-1.00
2023-02-23T06:09:09.577Z,-1.00
2023-02-23T06:12:26.704Z,-1.00
2023-02-23T06:14:55.451Z,-1.00
2023-02-23T06:17:27.788Z,-1.00
2023-02-23T06:19:57.886Z,-1.00
2023-02-23T06:22:28.751Z,-1.00
2023-02-23T06:25:00.817Z,-1.00
2023-02-23T06:27:32.838Z,-1.00
2023-02-23T06:30:21.360Z,-1.00
2023-02-23T06:33:30.762Z,-1.00
2023-02-23T06:36:00.797Z,-1.00
2023-02-23T06:38:32.472Z,-1.00
2023-02-23T06:41:11.084Z,-1.00
2023-02-23T06:43:42.102Z,-1.00
2023-02-23T06:46:12.239Z,-1.00
2023-02-23T06:48:44.678Z,-1.00
2023-02-23T06:51:15.644Z,-1.00
2023-02-23T06:53:46.192Z,-1.00
2023-02-23T06:56:18.168Z,-1.00
2023-02-23T06:59:08.446Z,-1.00
2023-02-23T07:02:19.881Z,-1.00
2023-02-23T07:04:49.249Z,-1.00
2023-02-23T07:07:19.103Z,-1.00
2023-02-23T07:10:31.147Z,-1.00
2023-02-23T07:13:01.134Z,-1.00
2023-02-23T07:16:34.718Z,-1.00
2023-02-23T07:20:04.609Z,-1.00
2023-02-23T07:22:53.165Z,-1.00
2023-02-23T07:25:21.894Z,-1.00
2023-02-23T07:32:40.425Z,-1.00
2023-02-23T07:36:10.114Z,-1.00
2023-02-23T07:39:05.688Z,-1.00
2023-02-23T07:41:34.132Z,-1.00
2023-02-23T07:44:02.676Z,-1.00
2023-02-23T07:46:34.249Z,-1.00
2023-02-23T07:49:03.420Z,-1.00
2023-02-23T07:52:37.712Z,-1.00
2023-02-23T07:57:06.952Z,-1.00
2023-02-23T08:00:25.360Z,-1.00
2023-02-23T08:03:17.834Z,-1.00
2023-02-23T08:05:47.734Z,-1.00
2023-02-23T08:08:17.041Z,-1.00
2023-02-23T08:11:46.555Z,-1.00
2023-02-23T08:14:34.744Z,-1.00
2023-02-23T08:17:35.282Z,-1.00
2023-02-23T08:20:11.305Z,-1.00
2023-02-23T08:22:49.298Z,-1.00
2023-02-23T08:25:21.674Z,-1.00
2023-02-23T08:27:55.312Z,-1.00
2023-02-23T08:30:27.180Z,-1.00
2023-02-23T08:32:58.101Z,-1.00
2023-02-23T08:35:51.854Z,-1.00
2023-02-23T08:38:22.118Z,-1.00
2023-02-23T08:40:51.380Z,-1.00
2023-02-23T08:43:21.344Z,-1.00
2023-02-23T08:45:50.315Z,-1.00
2023-02-23T08:48:19.808Z,-1.00
2023-02-23T08:51:11.151Z,-1.00
2023-02-23T08:53:40.885Z,-1.00
2023-02-23T08:56:16.005Z,-1.00
2023-02-23T08:58:46.705Z,-1.00
2023-02-23T09:01:22.318Z,-1.00
2023-02-23T09:05:03.685Z,-1.00
2023-02-23T09:07:53.732Z,-1.00
2023-02-23T09:10:51.592Z,-1.00
2023-02-23T09:13:20.605Z,-1.00
2023-02-23T09:15:53.015Z,-1.00
2023-02-23T09:18:29.309Z,-1.00
2023-02-23T09:21:00.358Z,-1.00
2023-02-23T09:23:29.973Z,-1.00
2023-02-23T09:26:02.626Z,-1.00
2023-02-23T09:28:50.531Z,-1.00
2023-02-23T09:31:24.692Z,-1.00
2023-02-23T09:34:13.006Z,-1.00
2023-02-23T09:36:41.922Z,-1.00
2023-02-23T09:39:12.912Z,-1.00
2023-02-23T09:42:13.971Z,-1.00
2023-02-23T09:45:37.717Z,-1.00
2023-02-23T09:48:28.361Z,-1.00
2023-02-23T09:50:58.511Z,-1.00
2023-02-23T09:53:39.193Z,-1.00
2023-02-23T09:56:16.739Z,-1.00
2023-02-23T09:59:06.240Z,-1.00
2023-02-23T10:02:15.680Z,-1.00
2023-02-23T10:05:48.499Z,-1.00
2023-02-23T10:08:46.633Z,-1.00
2023-02-23T10:12:06.651Z,-1.00
2023-02-23T10:15:14.505Z,-1.00
2023-02-23T10:17:56.188Z,-1.00
2023-02-23T10:21:09.673Z,-1.00
2023-02-23T10:23:46.547Z,-1.00
2023-02-23T10:26:22.634Z,-1.00
2023-02-23T10:28:54.474Z,-1.00
2023-02-23T10:31:32.350Z,-1.00
2023-02-23T10:34:57.870Z,-1.00
2023-02-23T10:37:26.614Z,-1.00
2023-02-23T10:40:56.395Z,-1.00
2023-02-23T10:44:34.428Z,-1.00
2023-02-23T10:47:08.428Z,-1.00
2023-02-23T10:49:52.875Z,-1.00
2023-02-23T10:52:58.306Z,-1.00
2023-02-23T10:55:32.410Z,-1.00
2023-02-23T10:58:22.545Z,-1.00
2023-02-23T11:01:05.398Z,-1.00
2023-02-23T11:04:04.341Z,-1.00
2023-02-23T11:07:47.284Z,-1.00
2023-02-23T11:11:01.056Z,-1.00
2023-02-23T11:13:36.045Z,-1.00
2023-02-23T11:16:20.550Z,-1.00
2023-02-23T11:18:52.976Z,-1.00
2023-02-23T11:21:35.948Z,-1.00
2023-02-23T11:24:39.175Z,-1.00
2023-02-23T11:27:23.483Z,-1.00
2023-02-23T11:30:13.163Z,-1.00
2023-02-23T11:33:19.389Z,-1.00
2023-02-23T11:36:17.298Z,-1.00
2023-02-23T11:38:48.061Z,-1.00
2023-02-23T11:41:24.582Z,-1.00
2023-02-23T11:44:29.299Z,-1.00
2023-02-23T11:46:59.081Z,-1.00
2023-02-23T11:49:53.962Z,-1.00
2023-02-23T11:52:44.939Z,-1.00
2023-02-23T11:55:20.661Z,-1.00
2023-02-23T11:57:53.580Z,-1.00
2023-02-23T12:00:46.123Z,-1.00
2023-02-23T12:03:24.926Z,-1.00
2023-02-23T12:06:27.967Z,-1.00
2023-02-23T12:09:13.358Z,-1.00
2023-02-23T12:12:25.400Z,-1.00
2023-02-23T12:15:40.869Z,-1.00
2023-02-23T12:18:46.056Z,-1.00
2023-02-23T12:21:56.393Z,-1.00
2023-02-23T12:25:03.183Z,-1.00
2023-02-23T12:28:18.108Z,-1.00
2023-02-23T12:31:04.526Z,-1.00
2023-02-23T12:33:50.831Z,-1.00
2023-02-23T12:37:22.653Z,-1.00
2023-02-23T12:39:59.490Z,-1.00
2023-02-23T12:43:15.001Z,-1.00
2023-02-23T12:46:27.207Z,-1.00
2023-02-23T12:49:41.765Z,67.73
2023-02-23T12:52:38.590Z,67.32
2023-02-23T12:55:13.815Z,66.60
2023-02-23T12:57:59.958Z,65.71
2023-02-23T13:01:26.326Z,65.93
2023-02-23T13:04:42.305Z,66.37
2023-02-23T13:07:42.173Z,67.12
2023-02-23T13:10:39.169Z,64.73
2023-02-23T13:13:40.494Z,64.64
2023-02-23T13:16:37.097Z,64.96
2023-02-23T13:19:42.633Z,64.28
2023-02-23T13:22:29.137Z,63.40
2023-02-23T13:25:05.170Z,63.72
2023-02-23T13:27:38.866Z,64.13
2023-02-23T13:30:11.646Z,63.66
2023-02-23T13:32:40.351Z,63.63
2023-02-23T13:35:24.350Z,63.80
2023-02-23T13:38:19.984Z,64.33
2023-02-23T13:41:10.428Z,65.48
2023-02-23T13:45:00.723Z,64.89
2023-02-23T13:51:35.475Z,64.72
2023-02-23T13:54:11.850Z,65.37
2023-02-23T13:56:57.905Z,64.82
2023-02-23T13:59:31.368Z,64.46
2023-02-23T14:02:03.420Z,65.67
2023-02-23T14:04:38.801Z,66.40
2023-02-23T14:07:31.622Z,65.64
2023-02-23T14:10:17.966Z,65.81
2023-02-23T14:13:18.157Z,66.36
2023-02-23T14:15:50.160Z,66.67
2023-02-23T14:18:55.062Z,67.65
2023-02-23T14:22:06.859Z,68.62
2023-02-23T14:24:37.066Z,69.43
2023-02-23T14:27:40.389Z,69.55
2023-02-23T14:30:20.808Z,69.02
2023-02-23T14:32:51.509Z,68.39
2023-02-23T14:35:32.678Z,68.45
2023-02-23T14:38:12.067Z,68.93
2023-02-23T14:40:46.840Z,68.41
2023-02-23T14:44:02.963Z,68.12
2023-02-23T14:46:39.774Z,67.63
2023-02-23T14:49:22.420Z,67.98
2023-02-23T14:51:57.255Z,67.89
2023-02-23T14:54:42.670Z,68.34
2023-02-23T14:57:41.603Z,68.07
2023-02-23T15:00:35.212Z,67.62
2023-02-23T15:03:46.631Z,67.31
2023-02-23T15:06:17.776Z,67.54
2023-02-23T15:09:37.140Z,67.80
2023-02-23T15:12:55.109Z,69.07
2023-02-23T15:15:58.895Z,68.54
2023-02-23T15:18:33.547Z,68.55
2023-02-23T15:21:09.246Z,68.08
2023-02-23T15:23:39.621Z,67.94
2023-02-23T15:26:34.124Z,68.76
2023-02-23T15:29:24.393Z,68.74
2023-02-23T15:31:58.299Z,68.40
2023-02-23T15:34:31.030Z,68.62
2023-02-23T15:37:14.398Z,69.99
2023-02-23T15:40:19.489Z,71.08
2023-02-23T15:42:54.561Z,71.95
2023-02-23T15:45:34.493Z,72.23
2023-02-23T15:48:09.232Z,72.96
2023-02-23T15:50:44.377Z,73.06
2023-02-23T15:53:43.862Z,73.31
2023-02-23T15:56:30.866Z,74.50
2023-02-23T15:59:14.595Z,75.29
2023-02-23T16:01:49.247Z,76.38
2023-02-23T16:04:20.604Z,76.25
2023-02-23T16:07:34.739Z,76.44
2023-02-23T16:10:21.172Z,77.02
2023-02-23T16:12:54.739Z,77.55
2023-02-23T16:16:15.313Z,79.25
2023-02-23T16:19:34.088Z,77.54
2023-02-23T16:22:20.710Z,76.72
2023-02-23T16:25:03.476Z,79.27
2023-02-23T16:27:33.411Z,80.65
2023-02-23T16:30:57.853Z,79.93
2023-02-23T16:34:39.379Z,80.05
2023-02-23T16:37:23.428Z,81.76
2023-02-23T16:39:56.532Z,81.98
2023-02-23T16:42:54.681Z,81.81
2023-02-23T16:46:15.176Z,81.94
2023-02-23T16:48:47.036Z,83.56
2023-02-23T16:51:21.148Z,83.68
2023-02-23T16:53:53.575Z,83.95
2023-02-23T16:56:24.158Z,84.31
2023-02-23T16:59:01.864Z,84.74
2023-02-23T17:01:33.222Z,85.73
2023-02-23T17:04:24.449Z,86.77
2023-02-23T17:07:03.896Z,87.79
2023-02-23T17:09:39.360Z,88.23
2023-02-23T17:12:24.074Z,87.52
2023-02-23T17:15:19.239Z,87.10
2023-02-23T17:17:50.689Z,88.34
2023-02-23T17:20:23.059Z,89.36
2023-02-23T17:23:09.662Z,90.34
2023-02-23T17:25:41.684Z,90.10
2023-02-23T17:28:13.996Z,91.01
2023-02-23T17:30:44.664Z,91.51
2023-02-23T17:33:15.168Z,90.25
2023-02-23T17:35:46.278Z,89.91
2023-02-23T17:38:21.737Z,89.81
2023-02-23T17:40:51.866Z,88.94
2023-02-23T17:43:24.064Z,90.70
2023-02-23T17:45:57.596Z,89.72
2023-02-23T17:48:32.145Z,88.25
2023-02-23T17:51:06.696Z,89.90
2023-02-23T17:53:37.929Z,90.31
2023-02-23T17:56:08.702Z,90.77
2023-02-23T17:58:41.522Z,91.45
2023-02-23T18:01:12.099Z,91.13
2023-02-23T18:03:43.698Z,91.80
2023-02-23T18:06:14.928Z,92.18
2023-02-23T18:08:45.725Z,90.03
2023-02-23T18:11:36.429Z,88.11
2023-02-23T18:14:07.170Z,87.01
2023-02-23T18:16:39.147Z,84.74
2023-02-23T18:19:31.417Z,83.79
2023-02-23T18:22:38.311Z,84.36
2023-02-23T18:25:10.251Z,85.23
2023-02-23T18:28:02.085Z,86.68
2023-02-23T18:30:30.707Z,86.48
2023-02-23T18:33:05.289Z,86.83
2023-02-23T18:35:41.424Z,86.05
2023-02-23T18:38:15.074Z,85.25
2023-02-23T18:40:45.471Z,84.85
2023-02-23T18:43:16.649Z,84.90
2023-02-23T18:45:46.663Z,82.64
2023-02-23T18:48:18.603Z,82.80
2023-02-23T18:50:47.993Z,82.89
2023-02-23T18:53:18.493Z,83.09
2023-02-23T18:55:47.723Z,83.09
2023-02-23T18:58:24.551Z,83.26
2023-02-23T19:01:19.524Z,84.20
2023-02-23T19:04:07.840Z,85.39
2023-02-23T19:06:39.354Z,85.48
2023-02-23T19:09:15.136Z,85.68
2023-02-23T19:11:44.649Z,86.53
2023-02-23T19:14:17.071Z,86.67
2023-02-23T19:16:47.177Z,88.06
2023-02-23T19:19:16.882Z,89.50
2023-02-23T19:21:45.785Z,91.67
2023-02-23T19:24:15.325Z,92.84
2023-02-23T19:26:45.818Z,93.55
2023-02-23T19:29:32.786Z,95.52
2023-02-23T19:32:01.423Z,98.37
2023-02-23T19:34:51.234Z,100.00
2023-02-23T19:37:22.121Z,100.00
2023-02-23T19:40:08.272Z,100.00
2023-02-23T19:42:46.962Z,100.00
2023-02-23T19:45:37.284Z,100.00
2023-02-23T19:48:15.946Z,100.00
2023-02-23T19:50:49.106Z,100.00
2023-02-23T19:53:23.820Z,100.00
2023-02-23T19:56:02.260Z,100.00
2023-02-23T19:58:35.671Z,100.00
2023-02-23T20:01:11.326Z,100.00
2023-02-23T20:03:45.421Z,100.00
2023-02-23T20:06:18.249Z,100.00
2023-02-23T20:08:52.721Z,100.00
2023-02-23T20:11:24.088Z,100.00
2023-02-23T20:13:55.964Z,100.00
2023-02-23T20:16:30.520Z,100.00
2023-02-23T20:19:00.416Z,100.00
2023-02-23T20:21:35.224Z,100.00
2023-02-23T20:24:06.032Z,100.00
2023-02-23T20:26:38.078Z,100.00
2023-02-23T20:29:18.026Z,100.00
2023-02-23T20:32:09.514Z,100.00
2023-02-23T20:34:39.409Z,100.00
2023-02-23T20:37:07.983Z,100.00
2023-02-23T20:39:58.985Z,100.00
2023-02-23T20:42:31.588Z,100.00
2023-02-23T20:45:01.651Z,100.00
2023-02-23T20:47:31.185Z,100.00
2023-02-23T20:50:02.199Z,100.00
2023-02-23T20:52:32.256Z,100.00
2023-02-23T20:55:30.409Z,100.00
2023-02-23T20:58:01.482Z,100.00
2023-02-23T21:00:34.495Z,100.00
2023-02-23T21:03:04.076Z,100.00
2023-02-23T21:05:41.136Z,100.00
2023-02-23T21:08:14.739Z,100.00
2023-02-23T21:10:45.743Z,100.00
2023-02-23T21:13:44.840Z,100.00
2023-02-23T21:16:24.943Z,100.00
2023-02-23T21:19:04.438Z,100.00
2023-02-23T21:21:42.188Z,100.00
2023-02-23T21:24:12.003Z,100.00
2023-02-23T21:27:02.767Z,100.00
2023-02-23T21:29:33.718Z,100.00
2023-02-23T21:32:05.352Z,100.00
2023-02-23T21:35:20.389Z,100.00
2023-02-23T21:37:52.688Z,100.00
2023-02-23T21:40:50.757Z,100.00
2023-02-23T21:43:43.816Z,100.00
2023-02-23T21:46:17.097Z,100.00
2023-02-23T21:48:45.460Z,100.00
2023-02-23T21:51:21.321Z,100.00
2023-02-23T21:54:08.468Z,100.00
2023-02-23T21:56:58.226Z,100.00
2023-02-23T21:59:28.590Z,100.00
2023-02-23T22:01:59.901Z,100.00
2023-02-23T22:04:29.202Z,100.00
2023-02-23T22:07:18.572Z,100.00
2023-02-23T22:10:07.533Z,100.00
2023-02-23T22:12:57.134Z,100.00
2023-02-23T22:15:31.788Z,100.00
2023-02-23T22:18:00.392Z,100.00
2023-02-23T22:20:30.207Z,100.00
2023-02-23T22:22:58.462Z,100.00
2023-02-23T22:25:26.688Z,100.00
2023-02-23T22:27:55.006Z,100.00
2023-02-23T22:30:26.724Z,100.00
2023-02-23T22:33:16.375Z,100.00
2023-02-23T22:35:48.925Z,100.00
2023-02-23T22:38:20.384Z,100.00
2023-02-23T22:41:13.245Z,100.00
2023-02-23T22:43:46.946Z,100.00
2023-02-23T22:46:19.281Z,100.00
2023-02-23T22:49:08.958Z,100.00
2023-02-23T22:51:50.464Z,100.00
2023-02-23T22:54:32.775Z,100.00
2023-02-23T22:57:23.139Z,100.00
2023-02-23T23:00:00.340Z,100.00
2023-02-23T23:02:33.187Z,100.00
2023-02-23T23:05:06.300Z,100.00
2023-02-23T23:07:36.742Z,100.00
2023-02-23T23:10:32.174Z,100.00
2023-02-23T23:13:03.552Z,100.00
2023-02-23T23:15:35.156Z,100.00
2023-02-23T23:18:10.270Z,100.00
2023-02-23T23:21:02.756Z,100.00
2023-02-23T23:23:32.244Z,100.00
2023-02-23T23:26:00.725Z,100.00
2023-02-23T23:28:40.759Z,100.00
2023-02-23T23:31:10.992Z,100.00
2023-02-23T23:34:11.793Z,100.00
2023-02-23T23:36:50.222Z,100.00
2023-02-23T23:39:33.000Z,100.00
2023-02-23T23:42:06.247Z,100.00
2023-02-23T23:44:36.538Z,100.00
2023-02-23T23:47:35.384Z,100.00
2023-02-23T23:50:11.222Z,100.00
2023-02-23T23:52:45.046Z,100.00
2023-02-23T23:55:16.532Z,100.00
2023-02-23T23:57:46.727Z,100.00
